Time;durP1;ratioP1;P1;durP2;ratioP2;P2;SDS_P1;SDS_P2;PMS_P1;PMS_P2;Temp;Humidity;BMP_temperature;BMP_pressure;BME280_temperature;BME280_humidity;BME280_pressure;Samples;Min_cycle;Max_cycle;Signal;HPM_P1;HPM_P2
2023/01/14 00:00:07;;;;;;;;;;;;;;;5.22;75.65;98362.38;5078777;28;4875;-79
2023/01/14 00:02:34;;;;;;;;;;;;;;;5.34;75.18;98370.34;5073642;28;4917;-80
2023/01/14 00:05:03;;;;;;;;;;;;;;;5.29;75.33;98362.22;5058857;28;4994;-79
2023/01/14 00:07:30;;;;;;;;;;;;;;;5.24;75.51;98372.81;5072708;28;4867;-79
2023/01/14 00:09:56;;;;;;;;;;;;;;;5.25;75.36;98374.44;5072894;28;4908;-79
2023/01/14 00:12:23;;;;;;;;;;;;;;;5.26;75.55;98376.06;5078253;28;5026;-79
2023/01/14 00:14:49;;;;;;;;;;;;;;;5.33;75.20;98387.41;5075492;28;4887;-79
2023/01/14 00:17:16;;;;;;;;;;;;;;;5.20;75.54;98383.16;5072766;28;4936;-79
2023/01/14 00:19:43;;;;;;;;;;;;;;;5.17;75.72;98380.16;5076504;28;4801;-79
2023/01/14 00:22:09;;;;;;;;;;;;;;;4.87;75.12;98314.47;5056558;28;4831;-79
2023/01/14 00:24:36;;;;;;;;;;;;;;;5.33;75.11;98382.06;5072572;28;4939;-79
2023/01/14 00:27:02;;;;;;;;;;;;;;;5.29;75.31;98386.25;5075510;28;4508;-79
2023/01/14 00:29:29;;;;;;;;;;;;;;;5.26;75.46;98393.94;5078554;28;4848;-79
2023/01/14 00:31:55;;;;;;;;;;;;;;;5.30;75.25;98401.25;5059898;28;4398;-79
2023/01/14 00:34:22;;;;;;;;;;;;;;;5.28;75.56;98405.19;5072727;28;5022;-79
2023/01/14 00:36:48;;;;;;;;;;;;;;;5.26;75.46;98405.41;5075611;28;4828;-79
2023/01/14 00:39:16;;;;;;;;;;;;;;;5.13;75.88;98409.16;5057623;28;5032;-79
2023/01/14 00:41:42;;;;;;;;;;;;;;;5.22;75.63;98407.75;5055802;28;4823;-79
2023/01/14 00:44:09;;;;;;;;;;;;;;;5.26;75.52;98407.28;5057615;28;4901;-79
2023/01/14 00:46:35;;;;;;;;;;;;;;;5.21;75.46;98411.47;5073356;28;4868;-79
2023/01/14 00:49:02;;;;;;;;;;;;;;;5.22;75.55;98418.41;5073142;28;4732;-79
2023/01/14 00:51:28;;;;;;;;;;;;;;;5.29;75.23;98418.28;5072663;28;4812;-79
2023/01/14 00:53:55;;;;;;;;;;;;;;;4.80;75.54;98347.69;5074555;28;4557;-79
2023/01/14 00:56:22;;;;;;;;;;;;;;;5.26;75.06;98424.09;5072513;28;4860;-79
2023/01/14 00:58:48;;;;;;;;;;;;;;;5.15;75.94;98430.31;5082427;28;4864;-79
2023/01/14 01:01:15;;;;;;;;;;;;;;;5.20;75.66;98422.38;5075592;28;4879;-79
2023/01/14 01:03:41;;;;;;;;;;;;;;;5.23;75.63;98437.91;5072467;28;4848;-79
2023/01/14 01:06:08;;;;;;;;;;;;;;;5.17;75.98;98430.84;5071237;28;4961;-79
2023/01/14 01:08:34;;;;;;;;;;;;;;;5.15;75.88;98435.63;5053757;28;4823;-79
2023/01/14 01:11:01;;;;;;;;;;;;;;;5.14;75.92;98442.00;5057528;28;4865;-79
2023/01/14 01:13:27;;;;;;;;;;;;;;;5.16;75.95;98445.25;5085633;28;4860;-79
2023/01/14 01:15:54;;;;;;;;;;;;;;;5.09;76.07;98440.06;5069034;28;5080;-79
2023/01/14 01:18:21;;;;;;;;;;;;;;;5.11;75.92;98448.63;5089389;28;4730;-80
2023/01/14 01:20:47;;;;;;;;;;;;;;;5.15;75.83;98447.13;5088077;28;4795;-79
2023/01/14 01:23:14;;;;;;;;;;;;;;;5.09;76.11;98452.56;5068928;28;5016;-79
2023/01/14 01:25:40;;;;;;;;;;;;;;;5.08;75.95;98450.94;5086325;28;4855;-79
2023/01/14 01:28:07;;;;;;;;;;;;;;;5.13;75.76;98453.72;5071145;28;5027;-80
2023/01/14 01:30:33;;;;;;;;;;;;;;;5.08;76.05;98453.63;5076874;28;4817;-79
2023/01/14 01:33:00;;;;;;;;;;;;;;;5.12;76.32;98460.13;5058229;28;4800;-79
2023/01/14 01:35:27;;;;;;;;;;;;;;;5.13;76.04;98461.72;5073227;28;4808;-79
2023/01/14 01:37:54;;;;;;;;;;;;;;;5.07;76.45;98463.47;5069866;28;4796;-79
2023/01/14 01:40:20;;;;;;;;;;;;;;;5.15;75.87;98470.31;5080474;28;4848;-79
2023/01/14 01:42:56;;;;;;;;;;;;;;;5.14;75.77;98474.81;5073969;28;4828;-79
2023/01/14 01:45:22;;;;;;;;;;;;;;;5.07;76.18;98481.34;5077125;28;4813;-80
2023/01/14 01:47:49;;;;;;;;;;;;;;;5.13;75.94;98481.22;5055941;28;4767;-79
2023/01/14 01:50:15;;;;;;;;;;;;;;;5.07;76.09;98486.69;5071744;28;4745;-79
2023/01/14 01:52:42;;;;;;;;;;;;;;;5.08;76.25;98490.97;5068892;28;4870;-80
2023/01/14 01:55:08;;;;;;;;;;;;;;;4.96;76.47;98490.97;5088989;28;4812;-79
2023/01/14 01:57:35;;;;;;;;;;;;;;;5.04;76.27;98487.97;5075228;28;4843;-79
2023/01/14 02:00:02;;;;;;;;;;;;;;;5.07;76.15;98500.03;5092153;28;5020;-79
2023/01/14 02:02:28;;;;;;;;;;;;;;;5.03;76.25;98497.03;5089189;28;5019;-79
2023/01/14 02:04:55;;;;;;;;;;;;;;;5.04;76.29;98503.16;5056993;28;4772;-79
2023/01/14 02:07:21;;;;;;;;;;;;;;;5.00;76.14;98495.63;5073675;28;4816;-79
2023/01/14 02:09:48;;;;;;;;;;;;;;;5.00;76.14;98495.63;5075693;28;4746;-80
2023/01/14 02:12:17;;;;;;;;;;;;;;;4.98;76.57;98510.25;5054242;28;4900;-79
2023/01/14 02:14:43;;;;;;;;;;;;;;;5.03;76.00;98504.19;5081130;28;4879;-79
2023/01/14 02:17:10;;;;;;;;;;;;;;;5.01;76.26;98504.44;5085947;28;4925;-79
2023/01/14 02:19:37;;;;;;;;;;;;;;;4.99;76.48;98506.53;5090716;28;4836;-79
2023/01/14 02:22:03;;;;;;;;;;;;;;;5.03;76.24;98514.88;5071826;28;4967;-80
2023/01/14 02:24:30;;;;;;;;;;;;;;;5.04;76.25;98513.84;5091400;28;4852;-80
2023/01/14 02:26:56;;;;;;;;;;;;;;;4.94;76.52;98517.06;5089470;28;4899;-79
2023/01/14 02:29:23;;;;;;;;;;;;;;;5.03;76.19;98521.03;5089360;28;4914;-79
2023/01/14 02:31:49;;;;;;;;;;;;;;;4.99;76.46;98518.00;5076722;28;5018;-79
2023/01/14 02:34:16;;;;;;;;;;;;;;;4.97;76.53;98516.59;5060926;28;4797;-79
2023/01/14 02:36:42;;;;;;;;;;;;;;;4.99;76.15;98520.66;5056682;28;4829;-79
2023/01/14 02:39:09;;;;;;;;;;;;;;;4.98;76.20;98526.25;5059494;28;4830;-79
2023/01/14 02:44:16;;;;;;;;;;;;;;;4.39;76.70;98459.56;5063507;28;4578;-79
2023/01/14 02:46:43;;;;;;;;;;;;;;;4.91;76.71;98536.22;5073727;28;4917;-79
2023/01/14 02:49:09;;;;;;;;;;;;;;;5.01;76.26;98533.78;5079157;28;4805;-79
2023/01/14 02:51:36;;;;;;;;;;;;;;;5.04;76.12;98544.00;5073939;28;4806;-79
2023/01/14 02:54:02;;;;;;;;;;;;;;;4.97;76.25;98538.78;5058729;28;4839;-79
2023/01/14 02:56:29;;;;;;;;;;;;;;;4.88;76.65;98550.00;5075989;28;4788;-79
2023/01/14 02:58:55;;;;;;;;;;;;;;;4.94;76.43;98538.41;5078430;28;5067;-79
2023/01/14 03:01:22;;;;;;;;;;;;;;;4.89;76.37;98549.78;5075310;28;4828;-79
2023/01/14 03:03:49;;;;;;;;;;;;;;;5.03;75.94;98553.06;5074370;28;4847;-79
2023/01/14 03:06:15;;;;;;;;;;;;;;;5.03;76.01;98553.06;5077448;28;4896;-79
2023/01/14 03:08:42;;;;;;;;;;;;;;;5.04;76.14;98557.34;5074243;28;4832;-79
2023/01/14 03:11:08;;;;;;;;;;;;;;;5.07;75.95;98556.88;5073100;28;4855;-79
2023/01/14 03:13:35;;;;;;;;;;;;;;;5.03;76.05;98553.06;5084670;28;4880;-79
2023/01/14 03:16:01;;;;;;;;;;;;;;;4.99;76.08;98560.69;5059215;28;4856;-79
2023/01/14 03:18:28;;;;;;;;;;;;;;;4.56;76.10;98486.38;5076523;28;4879;-79
2023/01/14 03:20:54;;;;;;;;;;;;;;;5.01;76.12;98555.13;5074470;28;4936;-79
2023/01/14 03:23:21;;;;;;;;;;;;;;;5.04;76.08;98559.19;5074969;28;4910;-79
2023/01/14 03:25:48;;;;;;;;;;;;;;;4.98;76.27;98566.28;5078661;28;4879;-79
2023/01/14 03:28:14;;;;;;;;;;;;;;;5.05;75.94;98571.50;5061389;28;4832;-79
2023/01/14 03:30:41;;;;;;;;;;;;;;;5.04;75.99;98564.53;5073351;28;4729;-79
2023/01/14 03:33:07;;;;;;;;;;;;;;;5.10;75.70;98567.09;5074594;28;4971;-79
2023/01/14 03:35:34;;;;;;;;;;;;;;;5.18;75.53;98579.28;5073637;28;4972;-79
2023/01/14 03:38:00;;;;;;;;;;;;;;;5.07;75.89;98582.75;5062472;28;4924;-80
2023/01/14 03:40:27;;;;;;;;;;;;;;;5.22;75.41;98586.56;5073083;28;4770;-79
2023/01/14 03:42:53;;;;;;;;;;;;;;;5.12;75.76;98597.03;5079447;28;4895;-79
2023/01/14 03:45:20;;;;;;;;;;;;;;;5.09;75.78;98594.81;5077408;28;4574;-79
2023/01/14 03:47:46;;;;;;;;;;;;;;;5.10;75.77;98600.97;5073521;28;4872;-79
2023/01/14 03:50:13;;;;;;;;;;;;;;;5.14;75.67;98600.25;5073814;28;4960;-78
2023/01/14 03:52:40;;;;;;;;;;;;;;;5.13;75.61;98595.16;5073766;28;4757;-79
2023/01/14 03:55:06;;;;;;;;;;;;;;;5.09;75.59;98600.16;5073239;28;4815;-79
2023/01/14 03:57:33;;;;;;;;;;;;;;;5.14;75.67;98599.44;5059088;28;4836;-79
2023/01/14 04:00:00;;;;;;;;;;;;;;;5.16;75.60;98608.84;5057034;28;4446;-80
2023/01/14 04:02:26;;;;;;;;;;;;;;;5.13;75.64;98603.97;5074699;28;4841;-79
2023/01/14 04:04:53;;;;;;;;;;;;;;;4.98;76.04;98607.09;5055165;28;4795;-79
2023/01/14 04:07:19;;;;;;;;;;;;;;;5.00;76.07;98604.22;5055718;28;4676;-79
2023/01/14 04:09:46;;;;;;;;;;;;;;;5.08;75.87;98606.53;5071637;28;4837;-79
2023/01/14 04:12:12;;;;;;;;;;;;;;;5.03;76.00;98609.09;5073238;28;4816;-79
2023/01/14 04:18:12;;;;;;;;;;;;;;;5.14;75.49;98620.78;5079560;28;4642;-79
2023/01/14 04:21:04;;;;;;;;;;;;;;;5.04;75.90;98621.38;5076968;28;4618;-79
2023/01/14 04:23:51;;;;;;;;;;;;;;;5.08;75.76;98629.72;5073553;28;4753;-79
2023/01/14 04:26:37;;;;;;;;;;;;;;;5.06;75.97;98624.63;5074507;28;4634;-79
2023/01/14 04:29:24;;;;;;;;;;;;;;;5.10;75.71;98630.31;5076176;28;4710;-79
2023/01/14 04:31:51;;;;;;;;;;;;;;;5.07;75.81;98636.94;5059447;28;4804;-79
2023/01/14 04:34:17;;;;;;;;;;;;;;;5.00;76.05;98639.72;5076444;28;4951;-79
2023/01/14 04:36:44;;;;;;;;;;;;;;;4.98;76.36;98639.13;5088770;28;4498;-79
2023/01/14 04:39:11;;;;;;;;;;;;;;;5.00;76.08;98641.56;5086927;28;4883;-79
2023/01/14 04:44:21;;;;;;;;;;;;;;;5.11;75.53;98643.41;5072978;28;4913;-79
2023/01/14 04:46:48;;;;;;;;;;;;;;;5.07;75.75;98649.47;5089234;28;4824;-79
2023/01/14 04:49:15;;;;;;;;;;;;;;;5.01;76.07;98648.53;5078105;28;4858;-79
2023/01/14 04:51:41;;;;;;;;;;;;;;;5.10;75.68;98652.47;5073045;28;5053;-79
2023/01/14 04:54:08;;;;;;;;;;;;;;;4.99;76.12;98653.25;5074678;28;4588;-79
2023/01/14 04:56:34;;;;;;;;;;;;;;;4.95;76.14;98663.59;5053732;28;4756;-79
2023/01/14 04:59:03;;;;;;;;;;;;;;;5.03;76.12;98656.28;5057527;28;4731;-79
2023/01/14 05:01:30;;;;;;;;;;;;;;;5.05;75.77;98668.34;5055025;28;4877;-79
2023/01/14 05:03:58;;;;;;;;;;;;;;;5.01;75.90;98668.00;5073317;28;4758;-79
2023/01/14 05:06:25;;;;;;;;;;;;;;;5.09;75.82;98666.03;5074423;28;4866;-79
2023/01/14 05:08:51;;;;;;;;;;;;;;;5.05;75.86;98664.88;5072304;28;4908;-79
2023/01/14 05:11:18;;;;;;;;;;;;;;;5.00;75.90;98655.72;5073934;28;4844;-79
2023/01/14 05:13:44;;;;;;;;;;;;;;;4.94;76.05;98659.31;5056338;28;4682;-79
2023/01/14 05:16:11;;;;;;;;;;;;;;;5.01;75.94;98657.34;5066288;28;4674;-79
2023/01/14 05:18:37;;;;;;;;;;;;;;;5.06;75.83;98659.31;5073548;28;4901;-79
2023/01/14 05:21:04;;;;;;;;;;;;;;;4.94;76.14;98658.47;5071831;28;4536;-79
2023/01/14 05:23:30;;;;;;;;;;;;;;;4.82;76.68;98665.63;5054927;28;4849;-79
2023/01/14 05:25:57;;;;;;;;;;;;;;;4.93;76.43;98664.84;5073737;28;4726;-79
2023/01/14 05:28:24;;;;;;;;;;;;;;;5.04;75.99;98661.41;5076109;28;4909;-79
2023/01/14 05:30:50;;;;;;;;;;;;;;;4.98;76.00;98671.13;5065307;28;4924;-79
2023/01/14 05:33:17;;;;;;;;;;;;;;;4.93;76.29;98670.19;5074064;28;4809;-79
2023/01/14 05:35:43;;;;;;;;;;;;;;;4.97;75.92;98685.53;5071970;28;4852;-79
2023/01/14 05:38:10;;;;;;;;;;;;;;;4.98;76.00;98691.66;5072447;28;4966;-79
2023/01/14 05:40:36;;;;;;;;;;;;;;;5.00;76.00;98693.06;5072780;28;4988;-79
2023/01/14 05:45:51;;;;;;;;;;;;;;;5.06;75.76;98691.34;5075311;28;4768;-79
2023/01/14 05:48:18;;;;;;;;;;;;;;;4.88;76.28;98697.56;5075130;28;4816;-79
2023/01/14 05:50:44;;;;;;;;;;;;;;;4.91;76.29;98702.44;5075216;28;4820;-79
2023/01/14 05:53:11;;;;;;;;;;;;;;;4.96;76.06;98707.09;5062656;28;4806;-79
2023/01/14 05:55:37;;;;;;;;;;;;;;;5.06;75.91;98706.50;5089960;28;4984;-79
2023/01/14 05:58:04;;;;;;;;;;;;;;;5.01;76.08;98701.88;5086525;28;4848;-79
2023/01/14 06:08:43;;;;;;;;;;;;;;;5.03;76.08;98714.97;5084653;28;4841;-79
2023/01/14 06:11:10;;;;;;;;;;;;;;;4.98;76.01;98719.16;5070195;28;4804;-79
2023/01/14 06:13:36;;;;;;;;;;;;;;;4.95;76.02;98705.47;5069101;28;4864;-79
2023/01/14 06:16:06;;;;;;;;;;;;;;;5.11;75.44;98712.00;5088347;28;4851;-79
2023/01/14 06:18:37;;;;;;;;;;;;;;;5.01;75.88;98715.22;5091626;28;4715;-80
2023/01/14 06:21:05;;;;;;;;;;;;;;;5.06;75.89;98711.84;5087511;28;5023;-79
2023/01/14 06:23:32;;;;;;;;;;;;;;;4.98;75.93;98719.16;5087004;28;4710;-79
2023/01/14 06:25:58;;;;;;;;;;;;;;;5.02;75.69;98724.84;5066237;28;4902;-79
2023/01/14 06:28:25;;;;;;;;;;;;;;;5.04;75.75;98719.28;5056301;28;4847;-79
2023/01/14 06:30:52;;;;;;;;;;;;;;;5.03;75.74;98723.00;5071065;28;4837;-79
2023/01/14 06:33:18;;;;;;;;;;;;;;;5.09;75.55;98724.75;5072027;28;4769;-79
2023/01/14 06:35:45;;;;;;;;;;;;;;;5.07;75.75;98726.84;5050573;28;4929;-79
2023/01/14 06:38:11;;;;;;;;;;;;;;;5.10;75.60;98731.72;5071221;28;4737;-79
2023/01/14 06:40:38;;;;;;;;;;;;;;;5.08;75.95;98731.13;5074786;28;4872;-79
2023/01/14 06:43:05;;;;;;;;;;;;;;;5.11;75.50;98734.16;5069015;28;4896;-79
2023/01/14 06:45:31;;;;;;;;;;;;;;;5.16;75.32;98736.94;5055570;28;4916;-79
2023/01/14 06:47:58;;;;;;;;;;;;;;;5.16;75.30;98749.50;5077472;28;4860;-79
2023/01/14 06:50:24;;;;;;;;;;;;;;;5.11;75.42;98752.81;5075125;28;4828;-79
2023/01/14 06:52:52;;;;;;;;;;;;;;;5.07;75.68;98748.19;5093500;28;4872;-79
2023/01/14 06:55:19;;;;;;;;;;;;;;;5.15;75.43;98747.88;5074095;28;4819;-79
2023/01/14 06:57:45;;;;;;;;;;;;;;;5.07;75.51;98750.84;5072790;28;5031;-79
2023/01/14 07:00:12;;;;;;;;;;;;;;;5.22;75.21;98753.91;5073288;28;4872;-79
2023/01/14 07:02:38;;;;;;;;;;;;;;;5.21;75.31;98755.78;5092968;28;5036;-79
2023/01/14 07:05:05;;;;;;;;;;;;;;;5.20;75.21;98764.00;5091724;28;4788;-79
2023/01/14 07:07:31;;;;;;;;;;;;;;;5.13;75.41;98777.44;5090629;28;4887;-80
2023/01/14 07:09:58;;;;;;;;;;;;;;;5.17;75.35;98775.94;5087990;28;4805;-79
2023/01/14 07:12:24;;;;;;;;;;;;;;;5.10;75.46;98777.09;5089012;28;4879;-79
2023/01/14 07:14:51;;;;;;;;;;;;;;;5.11;75.34;98776.03;5067836;28;4776;-79
2023/01/14 07:17:18;;;;;;;;;;;;;;;5.19;75.19;98775.72;5079747;28;4892;-79
2023/01/14 07:19:44;;;;;;;;;;;;;;;5.18;75.35;98776.78;5073030;28;4902;-79
2023/01/14 07:22:11;;;;;;;;;;;;;;;5.08;75.56;98776.50;5073196;28;4782;-79
2023/01/14 07:24:38;;;;;;;;;;;;;;;5.08;75.60;98771.16;5082402;28;4996;-79
2023/01/14 07:27:04;;;;;;;;;;;;;;;5.19;75.32;98778.38;5089997;28;4857;-80
2023/01/14 07:29:31;;;;;;;;;;;;;;;5.18;75.15;98776.78;5089233;28;4371;-79
2023/01/14 07:31:57;;;;;;;;;;;;;;;5.15;75.48;98778.03;5093266;28;4402;-80
2023/01/14 07:34:24;;;;;;;;;;;;;;;5.16;75.36;98787.66;5091908;28;4382;-80
2023/01/14 07:36:50;;;;;;;;;;;;;;;5.11;75.53;98781.38;5091136;28;5003;-79
2023/01/14 07:39:17;;;;;;;;;;;;;;;5.07;75.52;98780.22;5091848;28;4457;-78
2023/01/14 07:41:43;;;;;;;;;;;;;;;5.15;75.49;98790.56;5076946;28;4460;-78
2023/01/14 07:44:10;;;;;;;;;;;;;;;5.16;75.33;98793.00;5090595;28;4410;-78
2023/01/14 07:46:37;;;;;;;;;;;;;;;5.15;75.26;98798.56;5091025;28;4671;-78
2023/01/14 07:49:03;;;;;;;;;;;;;;;5.10;75.32;98801.91;5072640;28;4416;-79
2023/01/14 07:51:30;;;;;;;;;;;;;;;5.08;75.66;98800.50;5092670;28;4438;-79
2023/01/14 07:53:56;;;;;;;;;;;;;;;5.07;75.58;98806.91;5092446;28;4513;-79
2023/01/14 07:56:23;;;;;;;;;;;;;;;5.13;75.47;98816.66;5090943;28;4577;-79
2023/01/14 07:58:49;;;;;;;;;;;;;;;5.16;75.20;98818.88;5090510;28;4846;-78
2023/01/14 08:01:16;;;;;;;;;;;;;;;5.10;75.62;98823.25;5089503;28;4577;-78
2023/01/14 08:03:42;;;;;;;;;;;;;;;5.11;75.60;98832.06;5081026;28;4495;-79
2023/01/14 08:06:09;;;;;;;;;;;;;;;5.13;75.43;98828.16;5090952;28;4546;-79
2023/01/14 08:08:35;;;;;;;;;;;;;;;5.04;75.89;98831.38;5088480;28;4437;-79
2023/01/14 08:11:02;;;;;;;;;;;;;;;5.04;75.90;98834.03;5084763;28;4439;-79
2023/01/14 08:13:30;;;;;;;;;;;;;;;5.08;75.63;98837.88;5091937;28;4502;-79
2023/01/14 08:15:57;;;;;;;;;;;;;;;5.05;75.59;98830.31;5091188;28;4398;-79
2023/01/14 08:18:23;;;;;;;;;;;;;;;5.03;75.82;98837.72;5080401;28;4588;-79
2023/01/14 08:20:50;;;;;;;;;;;;;;;5.13;75.39;98846.81;5090142;28;4586;-79
2023/01/14 08:23:16;;;;;;;;;;;;;;;5.09;75.46;98847.50;5090682;28;4594;-79
2023/01/14 08:25:43;;;;;;;;;;;;;;;5.03;75.59;98851.91;5086309;28;4761;-79
2023/01/14 08:28:09;;;;;;;;;;;;;;;5.00;75.89;98847.81;5086306;28;4552;-79
2023/01/14 08:30:36;;;;;;;;;;;;;;;5.07;75.62;98849.59;5085450;28;4508;-80
2023/01/14 08:33:02;;;;;;;;;;;;;;;5.05;75.67;98846.31;5083383;28;4473;-79
2023/01/14 08:35:29;;;;;;;;;;;;;;;5.09;75.48;98850.16;5069270;28;4387;-79
2023/01/14 08:37:55;;;;;;;;;;;;;;;5.10;75.50;98844.63;5070420;28;4320;-79
2023/01/14 08:40:23;;;;;;;;;;;;;;;4.98;75.88;98849.09;5070313;28;4210;-79
2023/01/14 08:42:49;;;;;;;;;;;;;;;5.10;75.53;98847.28;5072975;28;4268;-80
2023/01/14 08:45:16;;;;;;;;;;;;;;;5.03;75.77;98851.06;5082954;28;4489;-79
2023/01/14 08:47:43;;;;;;;;;;;;;;;5.08;75.63;98845.88;5070246;28;4418;-79
2023/01/14 08:50:09;;;;;;;;;;;;;;;5.07;75.75;98853.06;5083486;28;4507;-79
2023/01/14 08:52:36;;;;;;;;;;;;;;;5.11;75.48;98846.22;5082644;28;4441;-79
2023/01/14 08:55:02;;;;;;;;;;;;;;;5.08;75.64;98841.34;5086172;28;4525;-79
2023/01/14 08:57:29;;;;;;;;;;;;;;;5.12;75.27;98836.41;5069990;28;5856;-79
2023/01/14 08:59:56;;;;;;;;;;;;;;;5.11;75.51;98845.41;5082577;28;4637;-79
2023/01/14 09:02:22;;;;;;;;;;;;;;;5.11;75.48;98845.41;5085179;28;4465;-79
2023/01/14 09:04:49;;;;;;;;;;;;;;;5.07;75.78;98838.91;5080639;28;4370;-79
2023/01/14 09:18:11;;;;;;;;;;;;;;;5.04;75.71;98866.06;5083689;28;4693;-80
2023/01/14 09:20:38;;;;;;;;;;;;;;;5.09;75.39;98867.00;5082026;28;4176;-80
2023/01/14 09:23:04;;;;;;;;;;;;;;;5.10;75.65;98865.16;5071949;28;4388;-79
2023/01/14 09:25:31;;;;;;;;;;;;;;;5.11;75.49;98867.56;5084458;28;4831;-80
2023/01/14 09:27:57;;;;;;;;;;;;;;;5.21;75.17;98864.41;5083830;28;4350;-80
2023/01/14 09:30:24;;;;;;;;;;;;;;;5.13;75.31;98868.19;5082840;28;4221;-80
2023/01/14 09:32:50;;;;;;;;;;;;;;;5.17;75.16;98865.88;5083054;28;4494;-80
2023/01/14 09:35:17;;;;;;;;;;;;;;;5.12;75.35;98869.22;5082642;28;4458;-80
2023/01/14 09:37:44;;;;;;;;;;;;;;;5.16;75.14;98861.59;5083216;28;4425;-80
2023/01/14 09:40:10;;;;;;;;;;;;;;;5.17;75.26;98857.88;5085021;28;4210;-80
2023/01/14 09:42:37;;;;;;;;;;;;;;;5.11;75.45;98854.25;5081999;28;4610;-80
2023/01/14 09:45:03;;;;;;;;;;;;;;;5.17;75.30;98855.19;5082380;28;4266;-80
2023/01/14 09:47:30;;;;;;;;;;;;;;;5.24;74.90;98854.06;5083497;28;4814;-80
2023/01/14 09:49:56;;;;;;;;;;;;;;;5.20;75.37;98860.88;5083395;28;4256;-79
2023/01/14 09:52:23;;;;;;;;;;;;;;;5.18;75.36;98864.84;5082583;28;4561;-79
2023/01/14 09:54:49;;;;;;;;;;;;;;;5.25;75.09;98862.91;5066837;28;4498;-80
2023/01/14 09:57:16;;;;;;;;;;;;;;;5.28;74.70;98870.44;5081142;28;4882;-79
2023/01/14 09:59:42;;;;;;;;;;;;;;;5.27;75.02;98868.03;5082970;28;4492;-80
2023/01/14 10:02:09;;;;;;;;;;;;;;;5.18;75.22;98873.66;5084369;28;4595;-79
2023/01/14 10:04:36;;;;;;;;;;;;;;;5.21;75.27;98872.41;5067276;28;4389;-79
2023/01/14 10:07:02;;;;;;;;;;;;;;;5.30;74.95;98879.06;5082101;28;4701;-80
2023/01/14 10:09:29;;;;;;;;;;;;;;;5.34;74.78;98880.22;5083806;28;4316;-80
2023/01/14 10:11:55;;;;;;;;;;;;;;;5.26;74.86;98885.88;5063347;28;4707;-80
2023/01/14 10:14:22;;;;;;;;;;;;;;;5.25;74.86;98876.25;5083493;28;4325;-80
2023/01/14 10:16:48;;;;;;;;;;;;;;;5.29;74.69;98882.75;5084051;28;4343;-80
2023/01/14 10:19:15;;;;;;;;;;;;;;;5.32;74.61;98876.94;5085321;28;4495;-80
2023/01/14 10:21:42;;;;;;;;;;;;;;;5.28;75.02;98877.66;5086850;28;4602;-80
2023/01/14 10:24:08;;;;;;;;;;;;;;;5.29;74.71;98873.94;5087482;28;4469;-79
2023/01/14 10:26:35;;;;;;;;;;;;;;;5.29;74.69;98866.72;5073186;28;4419;-80
2023/01/14 10:29:01;;;;;;;;;;;;;;;5.22;75.13;98863.34;5083883;28;4157;-80
2023/01/14 10:31:28;;;;;;;;;;;;;;;5.23;75.09;98873.81;5087205;28;4414;-80
2023/01/14 10:33:54;;;;;;;;;;;;;;;5.27;75.00;98881.38;5087395;28;4748;-80
2023/01/14 10:36:21;;;;;;;;;;;;;;;5.28;74.93;98883.78;5071152;28;4171;-80
2023/01/14 10:38:47;;;;;;;;;;;;;;;5.19;75.38;98880.63;5085642;28;4658;-80
2023/01/14 10:41:14;;;;;;;;;;;;;;;5.30;74.87;98886.25;5085771;28;4338;-79
2023/01/14 10:43:41;;;;;;;;;;;;;;;5.34;74.74;98882.09;5085752;28;4398;-80
2023/01/14 10:46:08;;;;;;;;;;;;;;;5.23;75.10;98881.81;5084158;28;4695;-79
2023/01/14 10:48:35;;;;;;;;;;;;;;;5.19;75.29;98875.28;5086772;28;4318;-79
2023/01/14 10:51:01;;;;;;;;;;;;;;;5.20;75.31;98878.75;5084343;28;4267;-79
2023/01/14 10:53:28;;;;;;;;;;;;;;;5.17;75.51;98877.34;5087276;28;4417;-79
2023/01/14 10:55:54;;;;;;;;;;;;;;;5.24;75.18;98880.78;5067469;28;4315;-79
2023/01/14 10:58:21;;;;;;;;;;;;;;;5.28;75.12;98881.13;5085116;28;4206;-79
2023/01/14 11:00:49;;;;;;;;;;;;;;;5.24;75.29;98872.75;5086176;28;4414;-79
2023/01/14 11:03:16;;;;;;;;;;;;;;;5.32;74.70;98876.94;5085998;28;4413;-80
2023/01/14 11:05:43;;;;;;;;;;;;;;;5.22;75.18;98879.34;5086352;28;4695;-79
2023/01/14 11:08:09;;;;;;;;;;;;;;;5.15;75.58;98873.31;5085137;28;4846;-79
2023/01/14 11:10:36;;;;;;;;;;;;;;;5.28;75.13;98872.31;5093711;28;4567;-79
2023/01/14 11:13:02;;;;;;;;;;;;;;;5.30;74.96;98878.25;5093367;28;4468;-79
2023/01/14 11:15:29;;;;;;;;;;;;;;;5.23;75.18;98879.16;5092040;28;4566;-79
2023/01/14 11:17:55;;;;;;;;;;;;;;;5.31;74.97;98874.53;5076131;28;4697;-80
2023/01/14 11:20:23;;;;;;;;;;;;;;;5.25;75.20;98873.56;5091364;28;4659;-80
2023/01/14 11:22:49;;;;;;;;;;;;;;;5.18;75.49;98883.53;5074083;28;4742;-79
2023/01/14 11:25:16;;;;;;;;;;;;;;;5.16;75.61;98880.25;5065414;28;4672;-79
2023/01/14 11:27:42;;;;;;;;;;;;;;;5.20;75.53;98878.75;5086614;28;4376;-79
2023/01/14 11:30:12;;;;;;;;;;;;;;;5.22;75.48;98869.50;5082362;28;4533;-79
2023/01/14 11:32:39;;;;;;;;;;;;;;;5.26;75.21;98869.84;5085201;28;4391;-79
2023/01/14 11:35:06;;;;;;;;;;;;;;;5.30;75.10;98854.22;5090714;28;4532;-79
2023/01/14 11:37:33;;;;;;;;;;;;;;;5.31;74.90;98850.50;5075545;28;4558;-79
2023/01/14 11:39:59;;;;;;;;;;;;;;;5.13;75.60;98849.50;5094380;28;4545;-79
2023/01/14 11:42:26;;;;;;;;;;;;;;;5.21;75.11;98846.53;5091736;28;4500;-79
2023/01/14 11:44:52;;;;;;;;;;;;;;;5.24;75.13;98842.59;5079421;28;4522;-79
2023/01/14 11:47:19;;;;;;;;;;;;;;;5.26;75.26;98848.50;5074177;28;4751;-79
2023/01/14 11:49:47;;;;;;;;;;;;;;;5.12;75.55;98842.53;5086898;28;4652;-79
2023/01/14 11:52:14;;;;;;;;;;;;;;;5.15;75.64;98843.94;5069406;28;4513;-79
2023/01/14 11:54:40;;;;;;;;;;;;;;;5.15;75.61;98846.63;5071004;28;5497;-79
2023/01/14 11:57:07;;;;;;;;;;;;;;;5.16;75.36;98848.22;5086466;28;4460;-79
2023/01/14 11:59:33;;;;;;;;;;;;;;;5.20;75.42;98841.41;5083002;28;4771;-79
2023/01/14 12:02:00;;;;;;;;;;;;;;;5.25;75.15;98838.88;5085116;28;4254;-79
2023/01/14 12:04:26;;;;;;;;;;;;;;;5.26;75.11;98832.47;5083098;28;4446;-79
2023/01/14 12:06:53;;;;;;;;;;;;;;;5.19;75.41;98834.44;5070187;28;4533;-79
2023/01/14 12:09:19;;;;;;;;;;;;;;;5.13;75.56;98838.00;5085389;28;4625;-80
2023/01/14 12:11:46;;;;;;;;;;;;;;;5.16;75.46;98841.03;5085383;28;4203;-79
2023/01/14 12:16:59;;;;;;;;;;;;;;;5.22;75.29;98834.78;5083868;28;4473;-79
2023/01/14 12:19:25;;;;;;;;;;;;;;;5.23;75.41;98836.44;5067750;28;4482;-79
2023/01/14 12:21:52;;;;;;;;;;;;;;;5.21;75.46;98835.03;5069282;28;4545;-79
2023/01/14 12:24:19;;;;;;;;;;;;;;;5.24;75.34;98838.06;5084089;28;4608;-79
2023/01/14 12:26:45;;;;;;;;;;;;;;;5.30;75.02;98840.88;5065737;28;4952;-79
2023/01/14 12:29:12;;;;;;;;;;;;;;;5.36;74.87;98839.97;5066976;28;4322;-79
2023/01/14 12:31:38;;;;;;;;;;;;;;;5.31;75.01;98835.28;5084601;28;4233;-79
2023/01/14 12:34:05;;;;;;;;;;;;;;;5.20;75.42;98841.41;5083630;28;4507;-78
2023/01/14 12:36:31;;;;;;;;;;;;;;;5.29;75.19;98834.69;5067009;28;4311;-79
2023/01/14 12:47:11;;;;;;;;;;;;;;;5.41;74.69;98832.06;5083086;28;4279;-79
2023/01/14 12:49:39;;;;;;;;;;;;;;;5.44;74.53;98834.28;5081858;28;4229;-79
2023/01/14 12:52:05;;;;;;;;;;;;;;;5.34;75.03;98832.16;5070186;28;4434;-79
2023/01/14 12:54:34;;;;;;;;;;;;;;;5.38;74.67;98827.19;5074315;28;4894;-79
2023/01/14 12:57:01;;;;;;;;;;;;;;;5.35;74.91;98833.78;5067825;28;4629;-79
2023/01/14 12:59:27;;;;;;;;;;;;;;;5.38;74.73;98828.00;5068870;28;4352;-79
2023/01/14 13:01:54;;;;;;;;;;;;;;;5.50;74.50;98819.19;5086730;28;4334;-79
2023/01/14 13:04:20;;;;;;;;;;;;;;;5.53;74.41;98813.41;5081648;28;4252;-79
2023/01/14 13:06:47;;;;;;;;;;;;;;;5.55;74.40;98805.97;5088451;28;4525;-78
2023/01/14 13:09:13;;;;;;;;;;;;;;;5.54;74.41;98807.84;5084683;28;4696;-79
2023/01/14 13:11:40;;;;;;;;;;;;;;;5.50;74.43;98804.00;5081643;28;4354;-79
2023/01/14 13:14:06;;;;;;;;;;;;;;;5.39;74.64;98800.25;5082544;28;4276;-79
2023/01/14 13:16:33;;;;;;;;;;;;;;;5.38;74.98;98803.16;5084153;28;4245;-79
2023/01/14 13:19:00;;;;;;;;;;;;;;;5.37;75.12;98797.00;5081974;28;4453;-79
2023/01/14 13:21:26;;;;;;;;;;;;;;;5.49;74.73;98802.38;5084135;28;4253;-78
2023/01/14 13:23:53;;;;;;;;;;;;;;;5.57;74.37;98796.69;5082945;28;4669;-79
2023/01/14 13:26:19;;;;;;;;;;;;;;;5.58;74.06;98787.63;5068587;28;4484;-79
2023/01/14 13:28:46;;;;;;;;;;;;;;;5.53;74.34;98781.34;5085448;28;4655;-79
2023/01/14 13:31:13;;;;;;;;;;;;;;;5.56;74.34;98772.88;5082839;28;4594;-79
2023/01/14 13:33:39;;;;;;;;;;;;;;;5.61;74.12;98765.81;5083321;28;4389;-79
2023/01/14 13:36:06;;;;;;;;;;;;;;;5.61;74.07;98762.34;5082069;28;4469;-79
2023/01/14 13:38:32;;;;;;;;;;;;;;;5.73;73.82;98765.00;5084542;28;4418;-79
2023/01/14 13:41:06;;;;;;;;;;;;;;;5.66;73.79;98765.94;5082670;28;4417;-79
2023/01/14 13:43:33;;;;;;;;;;;;;;;5.64;74.05;98769.88;5066760;28;4715;-79
2023/01/14 13:45:59;;;;;;;;;;;;;;;5.64;74.18;98769.88;5066751;28;4336;-79